createdAt,value
2022-10-10T00:01:25.158Z,98449.53
2022-10-10T00:03:51.277Z,98455.50
2022-10-10T00:06:17.406Z,98458.34
2022-10-10T00:08:43.534Z,98452.19
2022-10-10T00:11:09.688Z,98452.69
2022-10-10T00:13:35.816Z,98452.53
2022-10-10T00:16:01.906Z,98449.59
2022-10-10T00:18:28.004Z,98443.13
2022-10-10T00:20:54.490Z,98440.63
2022-10-10T00:23:20.607Z,98432.88
2022-10-10T00:25:46.808Z,98440.16
2022-10-10T00:28:12.963Z,98433.84
2022-10-10T00:30:39.097Z,98434.84
2022-10-10T00:33:05.244Z,98431.91
2022-10-10T00:35:31.349Z,98438.84
2022-10-10T00:37:57.442Z,98441.34
2022-10-10T00:40:23.534Z,98440.66
2022-10-10T00:42:49.946Z,98444.34
2022-10-10T00:45:16.255Z,98445.16
2022-10-10T00:47:42.335Z,98449.28
2022-10-10T00:50:08.530Z,98433.94
2022-10-10T00:52:34.693Z,98436.06
2022-10-10T00:55:00.777Z,98446.16
2022-10-10T00:57:26.889Z,98443.88
2022-10-10T00:59:52.976Z,98441.88
2022-10-10T01:02:19.069Z,98436.06
2022-10-10T01:04:45.885Z,98430.31
2022-10-10T01:07:12.021Z,98445.19
2022-10-10T01:09:38.106Z,98430.47
2022-10-10T01:12:04.221Z,98435.59
2022-10-10T01:14:30.319Z,98436.44
2022-10-10T01:16:56.420Z,98432.47
2022-10-10T01:19:22.735Z,98432.31
2022-10-10T01:21:48.820Z,98437.44
2022-10-10T01:24:14.919Z,98439.94
2022-10-10T01:26:41.038Z,98434.63
2022-10-10T01:29:07.139Z,98427.50
2022-10-10T01:31:33.234Z,98427.66
2022-10-10T01:33:59.344Z,98427.66
2022-10-10T01:36:25.440Z,98426.03
2022-10-10T01:38:51.541Z,98430.66
2022-10-10T01:41:17.655Z,98421.38
2022-10-10T01:43:43.744Z,98425.91
2022-10-10T01:46:09.832Z,98419.75
2022-10-10T01:48:35.938Z,98412.63
2022-10-10T01:51:02.044Z,98409.16
2022-10-10T01:53:28.145Z,98409.81
2022-10-10T01:55:54.235Z,98400.53
2022-10-10T01:58:20.312Z,98400.53
2022-10-10T02:00:46.461Z,98399.72
2022-10-10T02:03:12.653Z,98392.59
2022-10-10T02:05:38.741Z,98389.78
2022-10-10T02:08:04.835Z,98386.47
2022-10-10T02:10:30.947Z,98380.53
2022-10-10T02:12:57.078Z,98379.81
2022-10-10T02:15:23.181Z,98373.88
2022-10-10T02:17:49.292Z,98381.84
2022-10-10T02:20:15.377Z,98374.88
2022-10-10T02:22:41.472Z,98369.72
2022-10-10T02:25:07.594Z,98369.09
2022-10-10T02:27:33.679Z,98380.31
2022-10-10T02:29:59.775Z,98375.69
2022-10-10T02:32:25.893Z,98369.41
2022-10-10T02:34:51.969Z,98376.69
2022-10-10T02:37:18.058Z,98379.34
2022-10-10T02:39:44.163Z,98368.75
2022-10-10T02:42:10.263Z,98363.44
2022-10-10T02:44:36.386Z,98365.94
2022-10-10T02:47:02.512Z,98366.75
2022-10-10T02:49:28.617Z,98370.06
2022-10-10T02:51:54.697Z,98365.94
2022-10-10T02:54:21.149Z,98361.47
2022-10-10T02:56:47.242Z,98363.09
2022-10-10T02:59:13.359Z,98354.19
2022-10-10T03:01:39.460Z,98348.88
2022-10-10T03:04:05.566Z,98350.50
2022-10-10T03:06:31.654Z,98348.03
2022-10-10T03:08:57.752Z,98349.50
2022-10-10T03:11:23.843Z,98356.81
2022-10-10T03:13:49.944Z,98344.41
2022-10-10T03:16:16.103Z,98354.19
2022-10-10T03:18:42.195Z,98331.31
2022-10-10T03:21:08.280Z,98345.22
2022-10-10T03:23:34.414Z,98342.72
2022-10-10T03:26:00.512Z,98338.91
2022-10-10T03:28:26.650Z,98341.75
2022-10-10T03:30:52.770Z,98339.91
2022-10-10T03:33:18.867Z,98335.63
2022-10-10T03:35:44.957Z,98342.56
2022-10-10T03:38:11.047Z,98342.22
2022-10-10T03:40:37.142Z,98342.72
2022-10-10T03:43:03.242Z,98336.25
2022-10-10T03:45:29.335Z,98346.03
2022-10-10T03:47:55.418Z,98341.56
2022-10-10T03:50:21.496Z,98350.50
2022-10-10T03:52:47.879Z,98351.16
2022-10-10T03:55:14.145Z,98349.19
2022-10-10T03:57:40.250Z,98344.56
2022-10-10T04:00:06.716Z,98355.00
2022-10-10T04:02:32.816Z,98343.56
2022-10-10T04:04:58.901Z,98355.16
2022-10-10T04:07:25.000Z,98350.72
2022-10-10T04:09:51.114Z,98354.38
2022-10-10T04:12:17.211Z,98349.91
2022-10-10T04:14:43.309Z,98347.06
2022-10-10T04:17:09.387Z,98348.88
2022-10-10T04:19:35.479Z,98343.59
2022-10-10T04:22:01.596Z,98345.25
2022-10-10T04:24:27.695Z,98343.13
2022-10-10T04:26:53.786Z,98338.13
2022-10-10T04:29:19.905Z,98337.31
2022-10-10T04:31:45.995Z,98335.50
2022-10-10T04:34:12.082Z,98331.03
2022-10-10T04:36:38.189Z,98335.34
2022-10-10T04:39:04.281Z,98333.50
2022-10-10T04:41:30.373Z,98331.03
2022-10-10T04:43:56.467Z,98317.31
2022-10-10T04:46:22.545Z,98332.84
2022-10-10T04:48:48.632Z,98322.75
2022-10-10T04:51:14.747Z,98318.97
2022-10-10T04:53:40.841Z,98321.06
2022-10-10T04:56:06.927Z,98320.44
2022-10-10T04:58:33.036Z,98322.91
2022-10-10T05:00:59.149Z,98330.91
2022-10-10T05:03:25.300Z,98331.06
2022-10-10T05:05:51.396Z,98326.56
2022-10-10T05:08:17.476Z,98320.31
2022-10-10T05:10:43.549Z,98321.75
2022-10-10T05:13:09.659Z,98320.13
2022-10-10T05:15:35.759Z,98326.75
2022-10-10T05:18:01.853Z,98327.06
2022-10-10T05:20:27.966Z,98329.06
2022-10-10T05:22:54.166Z,98325.09
2022-10-10T05:25:20.381Z,98324.09
2022-10-10T05:27:46.546Z,98323.63
2022-10-10T05:30:12.651Z,98331.88
2022-10-10T05:32:38.741Z,98325.44
2022-10-10T05:35:04.841Z,98330.75
2022-10-10T05:37:30.936Z,98328.91
2022-10-10T05:39:57.030Z,98321.78
2022-10-10T05:42:23.133Z,98324.44
2022-10-10T05:44:49.261Z,98319.16
2022-10-10T05:47:15.361Z,98316.84
2022-10-10T05:49:41.478Z,98313.84
2022-10-10T05:52:07.571Z,98314.00
2022-10-10T05:54:33.656Z,98319.47
2022-10-10T05:56:59.757Z,98322.09
2022-10-10T05:59:25.855Z,98322.94
2022-10-10T06:01:51.930Z,98317.16
2022-10-10T06:04:18.548Z,98324.59
2022-10-10T06:06:44.636Z,98324.59
2022-10-10T06:09:10.727Z,98332.34
2022-10-10T06:11:36.828Z,98333.34
2022-10-10T06:14:02.921Z,98333.69
2022-10-10T06:16:29.023Z,98334.38
2022-10-10T06:18:55.133Z,98330.75
2022-10-10T06:21:21.233Z,98337.84
2022-10-10T06:23:47.320Z,98333.41
2022-10-10T06:26:13.432Z,98330.88
2022-10-10T06:28:39.642Z,98336.19
2022-10-10T06:31:05.776Z,98343.94
2022-10-10T06:33:31.885Z,98339.47
2022-10-10T06:35:57.982Z,98345.25
2022-10-10T06:38:24.076Z,98329.81
2022-10-10T06:40:50.196Z,98330.94
2022-10-10T06:43:16.304Z,98333.44
2022-10-10T06:45:42.399Z,98338.22
2022-10-10T06:48:08.525Z,98331.59
2022-10-10T06:50:34.604Z,98335.72
2022-10-10T06:53:00.695Z,98332.56
2022-10-10T06:55:26.850Z,98325.56
2022-10-10T06:57:52.936Z,98327.03
2022-10-10T07:00:19.035Z,98323.50
2022-10-10T07:02:45.163Z,98321.16
2022-10-10T07:05:11.257Z,98326.94
2022-10-10T07:07:37.346Z,98324.75
2022-10-10T07:10:03.754Z,98316.44
2022-10-10T07:12:31.917Z,98338.97
2022-10-10T07:15:01.838Z,98336.59
2022-10-10T07:17:27.969Z,98334.59
2022-10-10T07:19:54.064Z,98343.34
2022-10-10T07:22:20.144Z,98327.88
2022-10-10T07:24:46.283Z,98340.63
2022-10-10T07:27:12.462Z,98342.38
2022-10-10T07:29:38.667Z,98343.31
2022-10-10T07:32:04.830Z,98342.16
2022-10-10T07:34:31.050Z,98341.06
2022-10-10T07:36:57.144Z,98333.22
2022-10-10T07:39:23.538Z,98342.13
2022-10-10T07:41:49.622Z,98338.47
2022-10-10T07:44:15.734Z,98335.09
2022-10-10T07:46:42.077Z,98344.84
2022-10-10T07:49:08.223Z,98345.78
2022-10-10T07:51:34.321Z,98349.53
2022-10-10T07:54:00.424Z,98341.50
2022-10-10T07:56:26.506Z,98341.13
2022-10-10T07:58:52.608Z,98345.50
2022-10-10T08:01:18.741Z,98340.03
2022-10-10T08:03:44.950Z,98357.72
2022-10-10T08:06:11.070Z,98359.44
2022-10-10T08:08:44.853Z,98352.66
2022-10-10T08:11:16.358Z,98362.56
2022-10-10T08:13:42.475Z,98361.47
2022-10-10T08:16:08.659Z,98364.84
2022-10-10T08:18:36.822Z,98355.59
2022-10-10T08:21:03.009Z,98365.47
2022-10-10T08:23:29.121Z,98362.25
2022-10-10T08:25:55.212Z,98366.19
2022-10-10T08:28:21.390Z,98367.47
2022-10-10T08:30:47.506Z,98373.69
2022-10-10T08:33:13.581Z,98363.13
2022-10-10T08:35:39.678Z,98369.25
2022-10-10T08:38:05.786Z,98371.56
2022-10-10T08:40:31.888Z,98365.56
2022-10-10T08:42:58.304Z,98369.94
2022-10-10T08:45:25.169Z,98363.91
2022-10-10T08:47:51.273Z,98372.78
2022-10-10T08:50:17.399Z,98367.72
2022-10-10T08:52:43.542Z,98375.13
2022-10-10T08:55:09.624Z,98367.78
2022-10-10T08:57:35.752Z,98370.88
2022-10-10T09:00:01.833Z,98370.94
2022-10-10T09:02:43.767Z,98373.41
2022-10-10T09:05:14.013Z,98369.97
2022-10-10T09:07:40.105Z,98367.56
2022-10-10T09:10:06.281Z,98369.00
2022-10-10T09:12:32.473Z,98370.47
2022-10-10T09:15:02.214Z,98366.81
2022-10-10T09:17:28.987Z,98367.22
2022-10-10T09:19:55.141Z,98364.44
2022-10-10T09:22:21.491Z,98367.75
2022-10-10T09:24:47.624Z,98362.06
2022-10-10T09:27:13.926Z,98373.97
2022-10-10T09:29:40.060Z,98368.22
2022-10-10T09:32:06.168Z,98375.41
2022-10-10T09:34:32.415Z,98375.63
2022-10-10T09:36:59.459Z,98372.97
2022-10-10T09:39:25.616Z,98368.88
2022-10-10T09:41:51.735Z,98370.78
2022-10-10T09:44:17.830Z,98364.63
2022-10-10T09:46:43.908Z,98382.50
2022-10-10T09:49:10.019Z,98391.69
2022-10-10T09:51:36.116Z,98387.06
2022-10-10T09:54:02.212Z,98386.47
2022-10-10T09:56:28.321Z,98393.06
2022-10-10T09:58:54.493Z,98396.34
2022-10-10T10:01:20.604Z,98392.66
2022-10-10T10:03:46.742Z,98387.16
2022-10-10T10:06:12.910Z,98387.56
2022-10-10T10:08:39.000Z,98394.63
2022-10-10T10:11:05.107Z,98388.06
2022-10-10T10:13:31.217Z,98399.22
2022-10-10T10:15:57.319Z,98398.88
2022-10-10T10:18:23.696Z,98404.88
2022-10-10T10:20:49.777Z,98407.72
2022-10-10T10:23:15.868Z,98406.72
2022-10-10T10:25:41.984Z,98399.38
2022-10-10T10:28:08.101Z,98403.13
2022-10-10T10:30:34.230Z,98410.72
2022-10-10T10:33:00.337Z,98424.53
2022-10-10T10:35:26.428Z,98406.28
2022-10-10T10:37:52.523Z,98425.19
2022-10-10T10:40:18.637Z,98414.72
2022-10-10T10:42:44.733Z,98424.59
2022-10-10T10:45:10.836Z,98421.53
2022-10-10T10:50:07.965Z,98419.91
2022-10-10T10:52:34.043Z,98416.03
2022-10-10T10:55:00.144Z,98424.44
2022-10-10T10:57:37.135Z,98416.22
2022-10-10T11:00:22.518Z,98403.91
2022-10-10T11:03:09.701Z,98416.44
2022-10-10T11:05:44.242Z,98415.63
2022-10-10T11:08:10.432Z,98412.13
2022-10-10T11:10:36.526Z,98421.16
2022-10-10T11:13:02.683Z,98421.81
2022-10-10T11:15:54.112Z,98416.84
2022-10-10T11:18:14.877Z,98407.41
2022-10-10T11:20:40.965Z,98408.41
2022-10-10T11:23:09.208Z,98420.97
2022-10-10T11:25:35.651Z,98434.31
2022-10-10T11:28:01.754Z,98421.97
2022-10-10T11:30:27.851Z,98423.41
2022-10-10T11:32:53.960Z,98426.09
2022-10-10T11:35:20.047Z,98421.56
2022-10-10T11:37:46.139Z,98428.94
2022-10-10T11:40:12.230Z,98428.91
2022-10-10T11:42:38.330Z,98426.84
2022-10-10T11:45:04.410Z,98427.28
2022-10-10T11:47:30.533Z,98438.97
2022-10-10T11:49:56.631Z,98415.53
2022-10-10T11:52:33.943Z,98424.56
2022-10-10T11:55:00.399Z,98423.28
2022-10-10T11:57:26.489Z,98428.22
2022-10-10T11:59:52.589Z,98424.28
2022-10-10T12:02:18.704Z,98422.63
2022-10-10T12:04:44.794Z,98416.06
2022-10-10T12:07:10.889Z,98423.69
2022-10-10T12:09:37.009Z,98415.25
2022-10-10T12:12:03.117Z,98416.06
2022-10-10T12:14:29.556Z,98405.78
2022-10-10T12:16:55.828Z,98417.28
2022-10-10T12:19:21.932Z,98425.06
2022-10-10T12:21:48.054Z,98430.41
2022-10-10T12:24:16.232Z,98422.38
2022-10-10T12:26:42.329Z,98419.28
2022-10-10T12:29:08.489Z,98416.81
2022-10-10T12:31:35.095Z,98412.28
2022-10-10T12:34:01.412Z,98414.53
2022-10-10T12:36:27.530Z,98431.22
2022-10-10T12:38:56.476Z,98422.13
2022-10-10T12:41:24.747Z,98430.41
2022-10-10T12:43:50.850Z,98413.44
2022-10-10T12:46:16.984Z,98421.09
2022-10-10T12:48:43.071Z,98418.16
2022-10-10T12:51:09.158Z,98425.97
2022-10-10T12:53:35.310Z,98422.06
2022-10-10T12:56:01.407Z,98425.13
2022-10-10T12:58:28.014Z,98425.97
2022-10-10T13:00:54.249Z,98426.31
2022-10-10T13:03:20.354Z,98420.94
2022-10-10T13:05:46.464Z,98423.81
2022-10-10T13:08:12.577Z,98425.88
2022-10-10T13:10:38.793Z,98413.78
2022-10-10T13:13:04.911Z,98412.28
2022-10-10T13:15:31.024Z,98422.75
2022-10-10T13:17:57.111Z,98430.56
2022-10-10T13:20:23.202Z,98419.44
2022-10-10T13:22:49.316Z,98425.03
2022-10-10T13:25:15.400Z,98419.03
2022-10-10T13:27:41.513Z,98418.78
2022-10-10T13:30:07.716Z,98411.97
2022-10-10T13:32:33.809Z,98410.09
2022-10-10T13:34:59.896Z,98412.78
2022-10-10T13:37:26.015Z,98406.38
2022-10-10T13:39:52.101Z,98411.06
2022-10-10T13:42:18.201Z,98420.16
2022-10-10T13:44:44.325Z,98417.53
2022-10-10T13:47:10.411Z,98421.88
2022-10-10T13:49:36.503Z,98439.19
2022-10-10T13:52:02.602Z,98418.50
2022-10-10T13:54:28.718Z,98429.44
2022-10-10T13:56:54.815Z,98427.06
2022-10-10T13:59:20.933Z,98425.81
2022-10-10T14:01:47.091Z,98430.91
2022-10-10T14:04:13.255Z,98432.44
2022-10-10T14:06:39.367Z,98439.06
2022-10-10T14:09:05.463Z,98441.13
2022-10-10T14:11:31.570Z,98445.22
2022-10-10T14:13:57.692Z,98443.03
2022-10-10T14:16:23.784Z,98455.75
2022-10-10T14:18:49.882Z,98458.97
2022-10-10T14:21:15.999Z,98457.94
2022-10-10T14:23:42.099Z,98454.22
2022-10-10T14:26:08.193Z,98443.03
2022-10-10T14:28:34.377Z,98446.38
2022-10-10T14:31:00.863Z,98452.75
2022-10-10T14:33:27.225Z,98447.63
2022-10-10T14:35:53.608Z,98461.34
2022-10-10T14:38:19.687Z,98457.53
2022-10-10T14:40:45.800Z,98451.13
2022-10-10T14:43:11.919Z,98457.31
2022-10-10T14:45:38.179Z,98462.44
2022-10-10T14:48:04.280Z,98457.09
2022-10-10T14:50:30.382Z,98464.09
2022-10-10T14:52:56.497Z,98460.59
2022-10-10T14:55:22.596Z,98466.56
2022-10-10T14:57:48.712Z,98464.94
2022-10-10T15:00:14.800Z,98469.84
2022-10-10T15:02:45.231Z,98464.22
2022-10-10T15:05:11.807Z,98473.75
2022-10-10T15:07:37.893Z,98463.16
2022-10-10T15:10:32.780Z,98475.13
2022-10-10T15:12:50.277Z,98473.19
2022-10-10T15:15:16.387Z,98474.75
2022-10-10T15:17:42.599Z,98473.94
2022-10-10T15:20:08.696Z,98480.78
2022-10-10T15:22:34.791Z,98490.88
2022-10-10T15:25:00.880Z,98487.50
2022-10-10T15:27:26.997Z,98499.44
2022-10-10T15:29:53.097Z,98494.22
2022-10-10T15:32:19.181Z,98507.94
2022-10-10T15:34:45.647Z,98506.78
2022-10-10T15:37:11.747Z,98512.94
2022-10-10T15:39:37.836Z,98512.53
2022-10-10T15:42:12.239Z,98529.47
2022-10-10T15:44:40.315Z,98523.13
2022-10-10T15:47:06.470Z,98527.69
2022-10-10T15:49:32.565Z,98527.69
2022-10-10T15:51:58.647Z,98533.28
2022-10-10T15:54:24.755Z,98547.97
2022-10-10T15:56:50.828Z,98555.66
2022-10-10T15:59:16.916Z,98562.63
2022-10-10T16:01:43.009Z,98558.38
2022-10-10T16:04:09.124Z,98570.53
2022-10-10T16:06:35.229Z,98568.28
2022-10-10T16:09:16.783Z,98585.16
2022-10-10T16:11:47.399Z,98577.16
2022-10-10T16:14:13.507Z,98580.03
2022-10-10T16:16:39.588Z,98592.75
2022-10-10T16:19:05.681Z,98583.47
2022-10-10T16:21:31.776Z,98590.91
2022-10-10T16:23:58.271Z,98602.84
2022-10-10T16:26:24.457Z,98590.69
2022-10-10T16:28:50.610Z,98609.41
2022-10-10T16:31:16.772Z,98619.69
2022-10-10T16:33:42.873Z,98628.50
2022-10-10T16:36:09.034Z,98632.59
2022-10-10T16:38:35.147Z,98638.56
2022-10-10T16:41:01.576Z,98635.69
2022-10-10T16:43:27.914Z,98645.75
2022-10-10T16:45:54.037Z,98649.22
2022-10-10T16:48:20.125Z,98651.88
2022-10-10T16:50:46.224Z,98657.41
2022-10-10T16:53:12.331Z,98655.38
2022-10-10T16:55:38.432Z,98660.84
2022-10-10T16:58:04.527Z,98668.72
2022-10-10T17:00:30.738Z,98666.41
2022-10-10T17:02:56.971Z,98669.88
2022-10-10T17:05:23.094Z,98679.13
2022-10-10T17:07:49.185Z,98681.97
2022-10-10T17:10:15.274Z,98685.47
2022-10-10T17:12:41.382Z,98681.59
2022-10-10T17:15:07.473Z,98697.38
2022-10-10T17:17:33.593Z,98709.22
2022-10-10T17:19:59.745Z,98715.34
2022-10-10T17:22:25.884Z,98728.31
2022-10-10T17:24:51.990Z,98723.81
2022-10-10T17:27:18.253Z,98732.09
2022-10-10T17:29:44.353Z,98743.41
2022-10-10T17:32:10.639Z,98751.28
2022-10-10T17:34:36.948Z,98767.50
2022-10-10T17:37:03.035Z,98766.28
2022-10-10T17:39:29.125Z,98760.97
2022-10-10T17:41:55.317Z,98777.88
2022-10-10T17:44:21.429Z,98777.34
2022-10-10T17:46:47.517Z,98778.47
2022-10-10T17:49:13.634Z,98779.94
2022-10-10T17:51:39.981Z,98782.41
2022-10-10T17:54:06.080Z,98780.75
2022-10-10T17:56:32.200Z,98791.91
2022-10-10T17:58:58.296Z,98797.75
2022-10-10T18:01:24.423Z,98795.34
2022-10-10T18:03:50.536Z,98792.31
2022-10-10T18:06:16.625Z,98792.22
2022-10-10T18:08:42.712Z,98806.38
2022-10-10T18:11:13.180Z,98802.63
2022-10-10T18:13:39.679Z,98809.78
2022-10-10T18:16:07.262Z,98811.25
2022-10-10T18:18:33.568Z,98815.13
2022-10-10T18:20:59.909Z,98826.34
2022-10-10T18:23:26.224Z,98823.31
2022-10-10T18:25:52.347Z,98829.38
2022-10-10T18:28:18.491Z,98830.28
2022-10-10T18:30:44.616Z,98839.75
2022-10-10T18:33:10.779Z,98860.97
2022-10-10T18:35:36.869Z,98895.00
2022-10-10T18:38:02.965Z,98888.13
2022-10-10T18:40:29.114Z,98885.34
2022-10-10T18:42:55.198Z,98915.50
2022-10-10T18:45:21.342Z,98888.19
2022-10-10T18:47:47.502Z,98900.50
2022-10-10T18:50:13.792Z,98897.44
2022-10-10T18:52:39.893Z,98898.72
2022-10-10T18:55:06.009Z,98917.38
2022-10-10T18:57:32.114Z,98938.13
2022-10-10T18:59:58.193Z,98939.84
2022-10-10T19:02:24.455Z,98924.22
2022-10-10T19:04:50.544Z,98926.84
2022-10-10T19:07:16.695Z,98920.88
2022-10-10T19:09:42.818Z,98943.63
2022-10-10T19:12:08.914Z,98945.75
2022-10-10T19:14:34.997Z,98952.41
2022-10-10T19:17:01.135Z,98951.78
2022-10-10T19:19:27.334Z,98955.56
2022-10-10T19:21:53.458Z,98958.03
2022-10-10T19:24:19.593Z,98966.66
2022-10-10T19:26:45.734Z,98971.31
2022-10-10T19:29:11.944Z,98983.63
2022-10-10T19:31:38.045Z,98978.78
2022-10-10T19:34:04.150Z,98992.22
2022-10-10T19:36:30.240Z,99003.34
2022-10-10T19:38:56.343Z,98994.88
2022-10-10T19:41:22.495Z,98995.38
2022-10-10T19:43:48.595Z,98999.50
2022-10-10T19:46:14.752Z,99008.50
2022-10-10T19:48:41.051Z,99007.16
2022-10-10T19:51:07.153Z,99016.44
2022-10-10T19:53:33.557Z,99010.81
2022-10-10T19:55:59.902Z,99019.06
2022-10-10T19:58:26.214Z,99020.84
2022-10-10T20:00:52.312Z,99023.53
2022-10-10T20:03:18.421Z,99035.50
2022-10-10T20:05:44.514Z,99026.06
2022-10-10T20:08:10.625Z,99031.84
2022-10-10T20:10:36.713Z,99027.53
2022-10-10T20:13:02.792Z,99029.72
2022-10-10T20:15:28.923Z,99035.81
2022-10-10T20:17:55.022Z,99041.47
2022-10-10T20:20:21.240Z,99049.50
2022-10-10T20:22:47.339Z,99043.59
2022-10-10T20:25:13.430Z,99047.38
2022-10-10T20:27:39.524Z,99056.09
2022-10-10T20:30:05.621Z,99054.19
2022-10-10T20:32:31.754Z,99048.00
2022-10-10T20:34:57.847Z,99057.47
2022-10-10T20:37:23.990Z,99069.63
2022-10-10T20:39:50.087Z,99064.41
2022-10-10T20:42:16.185Z,99072.38
2022-10-10T20:44:42.338Z,99068.59
2022-10-10T20:47:08.433Z,99074.19
2022-10-10T20:49:34.517Z,99075.03
2022-10-10T20:52:00.621Z,99086.44
2022-10-10T20:54:26.721Z,99079.50
2022-10-10T20:56:52.818Z,99082.50
2022-10-10T20:59:21.309Z,99089.75
2022-10-10T21:01:47.599Z,99092.97
2022-10-10T21:04:13.751Z,99094.50
2022-10-10T21:06:39.860Z,99102.69
2022-10-10T21:09:05.979Z,99096.56
2022-10-10T21:11:32.063Z,99114.75
2022-10-10T21:13:58.171Z,99110.59
2022-10-10T21:16:24.251Z,99109.09
2022-10-10T21:18:57.659Z,99110.84
2022-10-10T21:21:24.526Z,99113.81
2022-10-10T21:23:55.127Z,99117.31
2022-10-10T21:26:22.304Z,99119.75
2022-10-10T21:28:48.472Z,99127.09
2022-10-10T21:31:14.581Z,99118.59
2022-10-10T21:33:40.667Z,99127.22
2022-10-10T21:36:07.402Z,99123.50
2022-10-10T21:38:33.847Z,99128.44
2022-10-10T21:40:59.976Z,99132.41
2022-10-10T21:43:26.564Z,99125.69
2022-10-10T21:45:52.778Z,99126.75
2022-10-10T21:48:18.962Z,99132.69
2022-10-10T21:50:45.154Z,99144.78
2022-10-10T21:53:11.506Z,99142.06
2022-10-10T21:55:37.705Z,99143.28
2022-10-10T21:58:04.544Z,99142.44
2022-10-10T22:00:30.692Z,99146.25
2022-10-10T22:02:56.917Z,99144.28
2022-10-10T22:05:23.036Z,99150.41
2022-10-10T22:07:49.254Z,99152.75
2022-10-10T22:10:15.350Z,99151.38
2022-10-10T22:12:41.618Z,99146.25
2022-10-10T22:15:07.766Z,99149.78
2022-10-10T22:17:34.155Z,99147.88
2022-10-10T22:20:00.267Z,99154.84
2022-10-10T22:22:26.357Z,99150.41
2022-10-10T22:24:52.614Z,99152.47
2022-10-10T22:27:19.074Z,99153.75
2022-10-10T22:29:45.221Z,99156.66
2022-10-10T22:32:11.518Z,99155.72
2022-10-10T22:34:37.780Z,99160.50
2022-10-10T22:37:03.981Z,99157.16
2022-10-10T22:39:30.083Z,99160.81
2022-10-10T22:41:56.206Z,99170.16
2022-10-10T22:44:22.489Z,99167.81
2022-10-10T22:46:48.583Z,99167.13
2022-10-10T22:49:14.773Z,99170.81
2022-10-10T22:51:40.913Z,99165.66
2022-10-10T22:54:07.102Z,99173.16
2022-10-10T22:56:33.494Z,99171.66
2022-10-10T22:58:59.586Z,99174.88
2022-10-10T23:01:25.955Z,99168.38
2022-10-10T23:03:52.171Z,99169.19
2022-10-10T23:06:18.262Z,99169.38
2022-10-10T23:08:44.353Z,99174.09
2022-10-10T23:11:10.619Z,99180.38
2022-10-10T23:13:36.745Z,99183.16
2022-10-10T23:16:03.439Z,99183.34
2022-10-10T23:18:30.020Z,99184.00
2022-10-10T23:20:56.167Z,99187.50
2022-10-10T23:23:22.335Z,99180.00
2022-10-10T23:25:48.463Z,99180.88
2022-10-10T23:28:14.765Z,99191.72
2022-10-10T23:30:40.929Z,99191.31
2022-10-10T23:33:07.118Z,99190.63
2022-10-10T23:35:33.223Z,99193.13
2022-10-10T23:37:59.497Z,99191.50
2022-10-10T23:40:25.598Z,99197.03
2022-10-10T23:42:51.773Z,99200.13
2022-10-10T23:45:17.861Z,99191.06
2022-10-10T23:47:43.970Z,99199.28
2022-10-10T23:50:10.075Z,99200.03
2022-10-10T23:52:36.168Z,99199.31
2022-10-10T23:55:02.785Z,99204.91
2022-10-10T23:57:28.875Z,99209.53
2022-10-10T23:59:54.953Z,99212.16
